EAL8281 SVMI-TJSJ
Flight info
| Callsign | EAL8281 |
|---|---|
| Flight time | 1h 12m |
| Altitude | 37000 |
| Route | VADOR2 UBKET UN779 ARMUR JOSHE3 |
| Aircraft | B772/H-SDE2E3FGHIJ5LORVWXY/LB1D1 |
Departure
| Time | 2025-10-03 14:12 |
|---|---|
| Airport | Maiquetía Simón Bolívar International Airport (SVMI) |
Arrival
| Time | 2025-10-03 15:25 |
|---|---|
| Airport | Luis Munoz Marin International Airport (TJSJ) |
| Time | Latitude | Longitude | Altitude | Speed | Heading |
|---|---|---|---|---|---|
| 2025-10-03 14:07 | 10.59892 | -67.00756 | 237 ft | 0 kts | 269° |
| 2025-10-03 14:07 | 10.59918 | -67.00784 | 238 ft | 9 kts | 351° |
| 2025-10-03 14:08 | 10.59996 | -67.00567 | 234 ft | 30 kts | 88° |
| 2025-10-03 14:08 | 10.60075 | -67.00295 | 229 ft | 15 kts | 16° |
| 2025-10-03 14:09 | 10.60120 | -67.00016 | 224 ft | 26 kts | 88° |
| 2025-10-03 14:09 | 10.60132 | -66.99694 | 220 ft | 17 kts | 112° |
| 2025-10-03 14:10 | 10.59932 | -66.99660 | 225 ft | 15 kts | 177° |
| 2025-10-03 14:10 | 10.59908 | -66.99616 | 225 ft | 8 kts | 75° |
| 2025-10-03 14:11 | 10.60341 | -66.97863 | 446 ft | 167 kts | 77° |
| 2025-10-03 14:11 | 10.60605 | -66.96755 | 1454 ft | 165 kts | 78° |
| 2025-10-03 14:12 | 10.61406 | -66.92695 | 2732 ft | 233 kts | 79° |
| 2025-10-03 14:12 | 10.63422 | -66.90146 | 3611 ft | 264 kts | 13° |
| 2025-10-03 14:13 | 10.67182 | -66.90180 | 4847 ft | 278 kts | 360° |
| 2025-10-03 14:13 | 10.71080 | -66.90112 | 6493 ft | 282 kts | 3° |
| 2025-10-03 14:14 | 10.73063 | -66.90044 | 7199 ft | 288 kts | 4° |
| 2025-10-03 14:14 | 10.77090 | -66.89892 | 8739 ft | 291 kts | 4° |
| 2025-10-03 14:15 | 10.81198 | -66.89732 | 10142 ft | 300 kts | 5° |
| 2025-10-03 14:15 | 10.85635 | -66.89610 | 10969 ft | 334 kts | 1° |
| 2025-10-03 14:16 | 10.92773 | -66.89940 | 13729 ft | 347 kts | 359° |
| 2025-10-03 14:16 | 10.97636 | -66.90180 | 15442 ft | 357 kts | 359° |
| 2025-10-03 14:17 | 11.02674 | -66.90410 | 17197 ft | 368 kts | 359° |
| 2025-10-03 14:17 | 11.07864 | -66.90638 | 18832 ft | 378 kts | 358° |
| 2025-10-03 14:18 | 11.10515 | -66.90754 | 19603 ft | 383 kts | 358° |
| 2025-10-03 14:18 | 11.15901 | -66.90988 | 21200 ft | 391 kts | 358° |
| 2025-10-03 14:19 | 11.21417 | -66.91227 | 22713 ft | 402 kts | 358° |
| 2025-10-03 14:19 | 11.29948 | -66.91598 | 24787 ft | 415 kts | 357° |
| 2025-10-03 14:20 | 11.41645 | -66.92107 | 27460 ft | 429 kts | 356° |
| 2025-10-03 14:22 | 11.63251 | -66.90618 | 31211 ft | 459 kts | 3° |
| 2025-10-03 14:24 | 11.92626 | -66.88210 | 34905 ft | 479 kts | 3° |
| 2025-10-03 14:26 | 12.15804 | -66.86278 | 36993 ft | 479 kts | 3° |
| 2025-10-03 14:28 | 12.45501 | -66.83807 | 36989 ft | 476 kts | 3° |
| 2025-10-03 14:30 | 12.68684 | -66.81886 | 36993 ft | 478 kts | 3° |
| 2025-10-03 14:32 | 12.98436 | -66.79415 | 36989 ft | 477 kts | 3° |
| 2025-10-03 14:34 | 13.21563 | -66.77490 | 36994 ft | 476 kts | 2° |
| 2025-10-03 14:36 | 13.51227 | -66.75015 | 36990 ft | 476 kts | 2° |
| 2025-10-03 14:38 | 13.74355 | -66.73082 | 36984 ft | 476 kts | 2° |
| 2025-10-03 14:40 | 14.03995 | -66.70598 | 36997 ft | 475 kts | 2° |
| 2025-10-03 14:42 | 14.30328 | -66.68386 | 36992 ft | 474 kts | 2° |
| 2025-10-03 14:44 | 14.56640 | -66.66661 | 36984 ft | 473 kts | 358° |
| 2025-10-03 14:46 | 14.82915 | -66.65870 | 37000 ft | 473 kts | 359° |
| 2025-10-03 14:48 | 15.08146 | -66.65034 | 36998 ft | 473 kts | 359° |
| 2025-10-03 14:50 | 15.34377 | -66.64163 | 36994 ft | 472 kts | 359° |
| 2025-10-03 14:52 | 15.57352 | -66.63380 | 36994 ft | 472 kts | 360° |
| 2025-10-03 14:54 | 15.86849 | -66.61899 | 36996 ft | 472 kts | 0° |
| 2025-10-03 14:56 | 16.13082 | -66.60607 | 36994 ft | 472 kts | 0° |
| 2025-10-03 14:58 | 16.39299 | -66.59311 | 37002 ft | 471 kts | 0° |
| 2025-10-03 15:00 | 16.61542 | -66.58206 | 34747 ft | 446 kts | 1° |
| 2025-10-03 15:02 | 16.88661 | -66.56860 | 30784 ft | 421 kts | 1° |
| 2025-10-03 15:04 | 17.11580 | -66.55718 | 27153 ft | 404 kts | 2° |
| 2025-10-03 15:06 | 17.28267 | -66.54885 | 24491 ft | 399 kts | 2° |
| 2025-10-03 15:06 | 17.33812 | -66.54608 | 23593 ft | 399 kts | 2° |
| 2025-10-03 15:07 | 17.39354 | -66.54331 | 22597 ft | 397 kts | 3° |
| 2025-10-03 15:07 | 17.44838 | -66.54056 | 21691 ft | 392 kts | 3° |
| 2025-10-03 15:08 | 17.50265 | -66.53785 | 20794 ft | 389 kts | 3° |
| 2025-10-03 15:08 | 17.52960 | -66.53650 | 20362 ft | 387 kts | 3° |
| 2025-10-03 15:09 | 17.58315 | -66.53381 | 19465 ft | 384 kts | 3° |
| 2025-10-03 15:09 | 17.66292 | -66.52980 | 18083 ft | 382 kts | 3° |
| 2025-10-03 15:10 | 17.71585 | -66.52717 | 17116 ft | 379 kts | 3° |
| 2025-10-03 15:10 | 17.76826 | -66.52458 | 16213 ft | 376 kts | 3° |
| 2025-10-03 15:11 | 17.82025 | -66.52200 | 15312 ft | 373 kts | 3° |
| 2025-10-03 15:11 | 17.87170 | -66.51945 | 14408 ft | 372 kts | 3° |
| 2025-10-03 15:12 | 17.92335 | -66.51688 | 13464 ft | 371 kts | 3° |
| 2025-10-03 15:12 | 17.97472 | -66.51433 | 12513 ft | 368 kts | 3° |
| 2025-10-03 15:13 | 18.00011 | -66.51307 | 12068 ft | 366 kts | 3° |
| 2025-10-03 15:14 | 18.10112 | -66.50804 | 10219 ft | 361 kts | 4° |
| 2025-10-03 15:14 | 18.12586 | -66.50678 | 10059 ft | 351 kts | 4° |
| 2025-10-03 15:14 | 18.17396 | -66.50440 | 9555 ft | 336 kts | 4° |
| 2025-10-03 15:15 | 18.21664 | -66.50210 | 9000 ft | 279 kts | 8° |
| 2025-10-03 15:15 | 18.24749 | -66.48293 | 7924 ft | 262 kts | 50° |
| 2025-10-03 15:16 | 18.26422 | -66.44856 | 7279 ft | 266 kts | 68° |
| 2025-10-03 15:16 | 18.27804 | -66.41266 | 6645 ft | 264 kts | 68° |
| 2025-10-03 15:17 | 18.28491 | -66.39478 | 6325 ft | 263 kts | 67° |
| 2025-10-03 15:17 | 18.30610 | -66.34186 | 5372 ft | 260 kts | 67° |
| 2025-10-03 15:18 | 18.32030 | -66.30689 | 4753 ft | 260 kts | 67° |
| 2025-10-03 15:18 | 18.33446 | -66.27200 | 4129 ft | 258 kts | 67° |
| 2025-10-03 15:19 | 18.34851 | -66.23737 | 3568 ft | 256 kts | 67° |
| 2025-10-03 15:19 | 18.36209 | -66.20395 | 3328 ft | 241 kts | 66° |
| 2025-10-03 15:20 | 18.37488 | -66.17237 | 3033 ft | 229 kts | 66° |
| 2025-10-03 15:20 | 18.38721 | -66.14197 | 2433 ft | 208 kts | 65° |
| 2025-10-03 15:21 | 18.39256 | -66.12879 | 2184 ft | 188 kts | 65° |
| 2025-10-03 15:21 | 18.40611 | -66.09535 | 1556 ft | 138 kts | 65° |
| 2025-10-03 15:22 | 18.41337 | -66.07749 | 1239 ft | 136 kts | 65° |
| 2025-10-03 15:22 | 18.42057 | -66.05969 | 859 ft | 133 kts | 63° |
| 2025-10-03 15:23 | 18.42795 | -66.04159 | 507 ft | 134 kts | 64° |
| 2025-10-03 15:23 | 18.43482 | -66.02456 | 162 ft | 123 kts | 63° |
| 2025-10-03 15:24 | 18.44155 | -66.00801 | -40 ft | 110 kts | 67° |
| 2025-10-03 15:24 | 18.44380 | -66.00239 | -44 ft | 44 kts | 66° |
| 2025-10-03 15:25 | 18.44390 | -65.99962 | -52 ft | 13 kts | 180° |
| 2025-10-03 15:25 | 18.44226 | -66.00232 | -30 ft | 14 kts | 163° |
| 2025-10-03 15:26 | 18.44037 | -66.00136 | -25 ft | 16 kts | 156° |
| 2025-10-03 15:26 | 18.43851 | -66.00053 | -24 ft | 14 kts | 157° |
| 2025-10-03 15:27 | 18.43671 | -66.00001 | -23 ft | 14 kts | 186° |
| 2025-10-03 15:27 | 18.43560 | -66.00100 | -23 ft | 11 kts | 269° |
| 2025-10-03 15:28 | 18.43563 | -66.00259 | -22 ft | 11 kts | 281° |
| 2025-10-03 15:28 | 18.43598 | -66.00298 | -25 ft | 4 kts | 287° |
| 2025-10-03 15:29 | 18.43553 | -66.00307 | -23 ft | 0 kts | 180° |